Anadolu University Airport Eskisehir TR
ICAO: LTBY
IATA: AOE
Category: Medium
Scheduled Services: Yes

Elevation: 2588 ft
TransAlt. 10000 ft.

Airport Communications:
TWR:123.75

LTBY Zoom In..

If you have problems with the map follow the link
https://www.worldairports.se/pages/airport.php?
ICAO=LTBY

Runways:

(A) RW 09 length 9843 ft width 148 ft
ILS 110.30 / hdg 88

(B) RW 27 length 9843 ft width 148 ft
---- / hdg 268

Location; LTBY
Day. 18 / Time. 04.50 Zulu
* QNH: 1013
* Temperature: 17° c. 62.6°f.
* Wind from: 250° Speed 05 kn.
Dewpoint: 16° c.
Visibility: 8000 m.
No significant clouds are observed below 5000 ft.

LTBY 180450Z 25005KT 8000 NSC 17/16 Q1013


Wind From 250°
Speed 05 kn.

 
 
jpsmedia.com for Web Design worldairports.se 2019   terms of use